Aérodrome :
LOGIN :

S'inscrire | Disclaimer

   EN    FR    IT 

 










Légende :    VFR   VFR Marginal   IFR   IFR Intensif   IFR Très Intensif
Visi : 
Plafond : 
>= 8 km
>= 3000ft
5 à 8 km
1000 à 3000 ft
1500m à 5 km
500 à 1000 ft
800 à 1500m
200 à 500 ft
< 800m
< 200 ft
Symboles :   Orages  Brouillard  Fortes neiges  Fortes précipitations  Vent > 20 kt
SIGMETs :   Divers  Orages  Givrage  Turbulence  Onde Orograph.  Cendres Volcan.







- Altitude de l'aérodrome : 277 ft
- Code IATA : JER
- Voir les cartes d'approche


EGJJ - Jersey

DERNIER METAR :
  • 140620Z 29008KT 9999 SCT006 BKN035 17/16 Q1018

METARs EXPIRÉS :
  • 140550Z 29007KT 9999 FEW006 BKN035 16/16 Q1018
  • 140520Z 30006KT 9999 SCT006 BKN035 16/16 Q1017
  • 140450Z 30006KT 270V330 9999 SCT007 BKN036 16/16 Q1017
  • 140420Z AUTO 30007KT 9999 OVC038/// 16/16 Q1017
  • 140350Z AUTO 30007KT 9999 FEW007/// OVC038/// 16/16 Q1017

TAF TAF EGJJ
Valide du 14 à 06h jusqu'au 14 à 15h UTC


140457Z 1406/1415 29010KT 9999 FEW005 BKN035
PROB30
TEMPO 1406/1410 BKN006
TEMPO 1410/1415 5000 BR BKN005
PROB30
TEMPO 1413/1415 1500 BR BKN001
ATIS : +44 1534 498 073
Pas de NOTAMs connus pour ce terrain.



MET'MAP, la Météo Aéronautique d'un coup d'oeil ! - Copyright ORBIFLY Décembre 2007 - Disclaimer

ORBIFLY MET'MAP TEAM :

Programmation & Développement : Alexandra Zaïnal
Conception & Développement : Baudouin d'Aumeries
Co-Programmation & Développement : Marc-Olivier Méhu
Soutien technique & logistique : Manuel Goepfert

Contact : metmap@orbifly.com




SOURCES & CREDITS :

   NOAA